createdAt,value
2023-01-11T00:00:03.235Z,96.09
2023-01-11T00:01:03.244Z,95.99
2023-01-11T00:02:03.261Z,95.89
2023-01-11T00:03:03.209Z,95.99
2023-01-11T00:04:03.255Z,95.67
2023-01-11T00:05:03.198Z,95.67
2023-01-11T00:06:03.177Z,95.32
2023-01-11T00:07:03.163Z,95.15
2023-01-11T00:08:03.160Z,95.47
2023-01-11T00:09:03.189Z,95.32
2023-01-11T00:10:03.156Z,95.32
2023-01-11T00:11:03.154Z,95.01
2023-01-11T00:12:03.104Z,94.24
2023-01-11T00:13:03.108Z,93.62
2023-01-11T00:14:03.125Z,93.82
2023-01-11T00:15:03.070Z,93.97
2023-01-11T00:16:03.070Z,93.72
2023-01-11T00:17:03.033Z,93.41
2023-01-11T00:18:03.089Z,93.72
2023-01-11T00:19:03.081Z,93.87
2023-01-11T00:20:03.028Z,94.18
2023-01-11T00:21:03.039Z,94.49
2023-01-11T00:22:03.015Z,94.38
2023-01-11T00:23:02.987Z,94.49
2023-01-11T00:24:03.030Z,94.38
2023-01-11T00:25:02.989Z,94.70
2023-01-11T00:26:02.962Z,94.70
2023-01-11T00:27:02.937Z,95.05
2023-01-11T00:28:02.920Z,95.67
2023-01-11T00:29:02.956Z,95.89
2023-01-11T00:30:02.909Z,95.67
2023-01-11T00:31:02.961Z,95.57
2023-01-11T00:32:02.874Z,95.42
2023-01-11T00:33:02.875Z,94.90
2023-01-11T00:34:02.911Z,95.01
2023-01-11T00:35:02.855Z,95.01
2023-01-11T00:36:02.847Z,95.01
2023-01-11T00:37:02.819Z,95.05
2023-01-11T00:38:02.817Z,95.53
2023-01-11T00:39:02.830Z,95.11
2023-01-11T00:40:02.786Z,95.01
2023-01-11T00:41:02.777Z,95.11
2023-01-11T00:42:02.769Z,94.70
2023-01-11T00:43:02.768Z,94.80
2023-01-11T00:44:02.795Z,95.21
2023-01-11T00:45:02.748Z,95.21
2023-01-11T00:46:02.729Z,95.21
2023-01-11T00:47:02.701Z,94.86
2023-01-11T00:48:02.682Z,94.55
2023-01-11T00:49:02.727Z,94.86
2023-01-11T00:50:02.692Z,95.07
2023-01-11T00:51:02.675Z,94.65
2023-01-11T00:52:02.668Z,94.86
2023-01-11T00:53:02.644Z,95.11
2023-01-11T00:54:02.684Z,94.55
2023-01-11T00:55:02.618Z,93.68
2023-01-11T00:56:02.592Z,93.57
2023-01-11T00:57:02.615Z,93.93
2023-01-11T00:58:02.583Z,93.99
2023-01-11T00:59:02.580Z,94.34
2023-01-11T01:00:02.603Z,94.20
2023-01-11T01:01:02.565Z,93.78
2023-01-11T01:02:02.540Z,94.09
2023-01-11T01:03:02.552Z,94.45
2023-01-11T01:04:02.520Z,94.55
2023-01-11T01:05:02.552Z,94.20
2023-01-11T01:06:02.547Z,94.09
2023-01-11T01:07:02.501Z,93.99
2023-01-11T01:08:02.496Z,94.34
2023-01-11T01:09:02.469Z,94.55
2023-01-11T01:10:02.500Z,94.51
2023-01-11T01:11:02.439Z,94.61
2023-01-11T01:12:02.425Z,94.30
2023-01-11T01:13:02.444Z,94.40
2023-01-11T01:14:02.421Z,94.30
2023-01-11T01:15:02.439Z,94.09
2023-01-11T01:16:02.389Z,94.30
2023-01-11T01:17:02.375Z,94.51
2023-01-11T01:18:02.376Z,94.30
2023-01-11T01:19:02.342Z,94.09
2023-01-11T01:20:02.357Z,94.71
2023-01-11T01:21:02.328Z,95.07
2023-01-11T01:22:02.322Z,95.48
2023-01-11T01:23:02.311Z,95.28
2023-01-11T01:24:02.308Z,94.92
2023-01-11T01:25:02.317Z,94.92
2023-01-11T01:26:02.250Z,95.48
2023-01-11T01:27:02.288Z,95.59
2023-01-11T01:28:02.257Z,95.59
2023-01-11T01:29:02.234Z,96.00
2023-01-11T01:30:02.271Z,95.54
2023-01-11T01:31:02.261Z,95.75
2023-01-11T01:32:02.222Z,95.79
2023-01-11T01:33:02.196Z,95.79
2023-01-11T01:34:02.201Z,95.44
2023-01-11T01:35:02.227Z,94.71
2023-01-11T01:36:02.171Z,94.05
2023-01-11T01:37:02.139Z,94.36
2023-01-11T01:38:02.141Z,94.15
2023-01-11T01:39:02.139Z,93.95
2023-01-11T01:40:02.134Z,93.49
2023-01-11T01:41:02.112Z,93.59
2023-01-11T01:42:02.082Z,93.28
2023-01-11T01:43:02.086Z,93.07
2023-01-11T01:44:02.053Z,92.97
2023-01-11T01:45:02.103Z,93.18
2023-01-11T01:46:02.070Z,93.07
2023-01-11T01:47:02.050Z,93.07
2023-01-11T01:48:02.014Z,92.97
2023-01-11T01:49:02.005Z,93.18
2023-01-11T01:50:02.032Z,92.97
2023-01-11T01:51:02.013Z,93.18
2023-01-11T01:52:01.979Z,93.49
2023-01-11T01:53:01.975Z,93.63
2023-01-11T01:54:01.968Z,93.38
2023-01-11T01:55:01.994Z,93.53
2023-01-11T01:56:01.936Z,93.38
2023-01-11T01:57:01.926Z,93.84
2023-01-11T01:58:01.895Z,93.84
2023-01-11T01:59:01.903Z,93.38
2023-01-11T02:00:01.952Z,92.97
2023-01-11T02:01:01.875Z,92.76
2023-01-11T02:02:01.941Z,92.86
2023-01-11T02:03:01.949Z,93.07
2023-01-11T02:04:01.841Z,93.07
2023-01-11T02:05:01.895Z,93.28
2023-01-11T02:06:01.839Z,92.86
2023-01-11T02:07:01.844Z,92.86
2023-01-11T02:08:01.841Z,93.18
2023-01-11T02:09:01.824Z,92.66
2023-01-11T02:10:01.842Z,92.76
2023-01-11T02:11:01.841Z,92.86
2023-01-11T02:12:01.738Z,92.66
2023-01-11T02:13:01.742Z,92.76
2023-01-11T02:14:01.709Z,93.18
2023-01-11T02:15:01.722Z,93.38
2023-01-11T02:16:01.814Z,93.38
2023-01-11T02:17:01.687Z,93.38
2023-01-11T02:18:01.667Z,93.28
2023-01-11T02:19:01.653Z,93.38
2023-01-11T02:20:01.679Z,93.07
2023-01-11T02:21:01.696Z,93.07
2023-01-11T02:22:01.642Z,93.18
2023-01-11T02:23:01.637Z,93.49
2023-01-11T02:24:01.636Z,92.97
2023-01-11T02:25:01.607Z,93.07
2023-01-11T02:26:01.638Z,92.82
2023-01-11T02:27:01.598Z,92.41
2023-01-11T02:28:01.557Z,92.51
2023-01-11T02:29:01.574Z,92.61
2023-01-11T02:30:01.572Z,92.51
2023-01-11T02:31:01.584Z,92.82
2023-01-11T02:32:01.515Z,92.72
2023-01-11T02:33:01.534Z,92.61
2023-01-11T02:34:01.509Z,92.61
2023-01-11T02:35:01.477Z,92.93
2023-01-11T02:36:01.489Z,92.72
2023-01-11T02:37:01.515Z,92.61
2023-01-11T02:38:01.477Z,92.93
2023-01-11T02:39:01.442Z,93.23
2023-01-11T02:40:01.435Z,93.02
2023-01-11T02:41:01.480Z,92.93
2023-01-11T02:42:01.433Z,92.61
2023-01-11T02:43:01.400Z,91.89
2023-01-11T02:44:01.392Z,92.20
2023-01-11T02:45:01.400Z,92.10
2023-01-11T02:46:01.403Z,92.51
2023-01-11T02:47:01.357Z,92.72
2023-01-11T02:48:01.331Z,92.61
2023-01-11T02:49:01.318Z,91.89
2023-01-11T02:50:01.369Z,91.43
2023-01-11T02:51:01.360Z,91.02
2023-01-11T02:52:01.274Z,90.60
2023-01-11T02:53:01.282Z,91.12
2023-01-11T02:54:01.291Z,90.50
2023-01-11T02:55:01.262Z,90.50
2023-01-11T02:56:01.289Z,90.91
2023-01-11T02:57:01.259Z,91.02
2023-01-11T02:58:01.219Z,90.81
2023-01-11T02:59:01.239Z,90.91
2023-01-11T03:00:01.219Z,91.12
2023-01-11T03:01:01.216Z,91.43
2023-01-11T03:02:01.265Z,90.91
2023-01-11T03:03:01.298Z,90.81
2023-01-11T03:04:01.159Z,90.81
2023-01-11T03:05:01.175Z,91.02
2023-01-11T03:06:01.162Z,91.64
2023-01-11T03:07:01.208Z,91.37
2023-01-11T03:08:01.136Z,91.47
2023-01-11T03:09:01.105Z,91.58
2023-01-11T03:10:01.138Z,91.16
2023-01-11T03:11:01.091Z,91.37
2023-01-11T03:12:01.131Z,91.27
2023-01-11T03:13:01.078Z,91.68
2023-01-11T03:14:01.062Z,91.06
2023-01-11T03:15:01.055Z,90.60
2023-01-11T03:16:01.068Z,90.60
2023-01-11T03:17:01.050Z,91.06
2023-01-11T03:18:01.013Z,91.58
2023-01-11T03:19:01.001Z,92.03
2023-01-11T03:20:00.990Z,92.03
2023-01-11T03:21:00.985Z,92.35
2023-01-11T03:22:00.998Z,91.89
2023-01-11T03:23:00.997Z,91.89
2023-01-11T03:24:00.939Z,92.24
2023-01-11T03:25:00.930Z,92.03
2023-01-11T03:26:00.942Z,92.03
2023-01-11T03:27:00.944Z,91.37
2023-01-11T03:28:00.914Z,90.75
2023-01-11T03:29:00.902Z,90.54
2023-01-11T03:30:00.908Z,90.54
2023-01-11T03:31:00.916Z,90.54
2023-01-11T03:32:00.897Z,91.06
2023-01-11T03:33:00.847Z,91.16
2023-01-11T03:34:00.828Z,91.62
2023-01-11T03:35:00.830Z,91.68
2023-01-11T03:36:00.806Z,91.37
2023-01-11T03:37:00.834Z,91.41
2023-01-11T03:38:00.759Z,91.52
2023-01-11T03:39:00.797Z,91.37
2023-01-11T03:40:00.765Z,91.62
2023-01-11T03:41:00.740Z,91.93
2023-01-11T03:42:00.736Z,91.47
2023-01-11T03:43:00.781Z,91.72
2023-01-11T03:44:00.725Z,91.62
2023-01-11T03:45:00.713Z,92.14
2023-01-11T03:46:00.715Z,92.35
2023-01-11T03:47:00.746Z,91.83
2023-01-11T03:48:00.698Z,92.14
2023-01-11T03:49:00.672Z,91.93
2023-01-11T03:50:00.649Z,92.24
2023-01-11T03:51:00.648Z,92.35
2023-01-11T03:52:00.618Z,92.55
2023-01-11T03:53:00.665Z,92.14
2023-01-11T03:54:00.611Z,91.47
2023-01-11T03:55:00.621Z,91.06
2023-01-11T03:56:00.574Z,91.47
2023-01-11T03:57:00.581Z,91.47
2023-01-11T03:58:00.588Z,91.93
2023-01-11T03:59:00.561Z,92.24
2023-01-11T04:00:00.520Z,92.55
2023-01-11T04:01:00.591Z,92.45
2023-01-11T04:02:00.525Z,92.35
2023-01-11T04:03:00.550Z,92.24
2023-01-11T04:04:00.517Z,92.45
2023-01-11T04:05:00.483Z,92.76
2023-01-11T04:06:00.481Z,92.76
2023-01-11T04:07:00.518Z,92.14
2023-01-11T04:08:00.507Z,91.89
2023-01-11T04:09:00.489Z,91.99
2023-01-11T04:10:00.416Z,91.68
2023-01-11T04:11:00.427Z,91.58
2023-01-11T04:12:00.397Z,91.47
2023-01-11T04:13:00.446Z,91.37
2023-01-11T04:14:00.410Z,91.27
2023-01-11T04:15:00.358Z,91.37
2023-01-11T04:16:00.390Z,90.81
2023-01-11T04:17:00.357Z,90.60
2023-01-11T04:18:00.360Z,90.39
2023-01-11T04:19:00.313Z,90.29
2023-01-11T04:20:00.293Z,90.60
2023-01-11T04:21:00.300Z,90.50
2023-01-11T04:22:00.297Z,91.02
2023-01-11T04:23:00.318Z,91.43
2023-01-11T04:24:00.267Z,91.02
2023-01-11T04:25:00.259Z,90.70
2023-01-11T04:26:00.235Z,90.50
2023-01-11T04:27:00.236Z,90.39
2023-01-11T04:28:00.259Z,90.39
2023-01-11T04:29:00.201Z,90.19
2023-01-11T04:30:00.201Z,90.81
2023-01-11T04:31:00.190Z,90.81
2023-01-11T04:32:00.209Z,90.70
2023-01-11T04:33:00.226Z,90.50
2023-01-11T04:34:00.158Z,89.83
2023-01-11T04:35:00.136Z,89.94
2023-01-11T04:36:00.127Z,90.56
2023-01-11T04:37:00.133Z,90.35
2023-01-11T04:38:00.143Z,90.56
2023-01-11T04:39:00.119Z,90.45
2023-01-11T04:40:00.135Z,91.02
2023-01-11T04:41:00.114Z,91.02
2023-01-11T04:42:00.143Z,90.81
2023-01-11T04:43:00.108Z,91.02
2023-01-11T04:44:00.045Z,90.91
2023-01-11T04:45:00.006Z,90.56
2023-01-11T04:46:00.092Z,90.66
2023-01-11T04:47:00.013Z,90.77
2023-01-11T04:48:00.016Z,90.35
2023-01-11T04:48:59.970Z,90.56
2023-01-11T04:49:59.967Z,90.77
2023-01-11T04:50:59.961Z,90.66
2023-01-11T04:51:59.979Z,90.66
2023-01-11T04:52:59.985Z,90.66
2023-01-11T04:53:59.961Z,90.66
2023-01-11T04:54:59.934Z,90.45
2023-01-11T04:55:59.907Z,90.35
2023-01-11T04:56:59.905Z,90.04
2023-01-11T04:57:59.930Z,90.56
2023-01-11T04:58:59.889Z,90.56
2023-01-11T04:59:59.876Z,90.56
2023-01-11T05:00:59.885Z,90.56
2023-01-11T05:01:59.845Z,90.87
2023-01-11T05:02:59.891Z,90.66
2023-01-11T05:03:59.882Z,90.56
2023-01-11T05:04:59.803Z,90.77
2023-01-11T05:05:59.804Z,91.18
2023-01-11T05:06:59.792Z,90.77
2023-01-11T05:07:59.814Z,90.31
2023-01-11T05:08:59.765Z,90.83
2023-01-11T05:09:59.776Z,91.14
2023-01-11T05:10:59.742Z,90.62
2023-01-11T05:11:59.743Z,90.83
2023-01-11T05:12:59.776Z,90.52
2023-01-11T05:13:59.718Z,90.52
2023-01-11T05:14:59.719Z,90.62
2023-01-11T05:15:59.692Z,90.31
2023-01-11T05:16:59.680Z,90.52
2023-01-11T05:17:59.723Z,90.83
2023-01-11T05:18:59.664Z,90.72
2023-01-11T05:19:59.643Z,91.03
2023-01-11T05:20:59.611Z,91.03
2023-01-11T05:21:59.637Z,91.14
2023-01-11T05:22:59.651Z,91.08
2023-01-11T05:23:59.605Z,90.62
2023-01-11T05:24:59.584Z,90.93
2023-01-11T05:25:59.578Z,91.18
2023-01-11T05:26:59.579Z,90.97
2023-01-11T05:27:59.607Z,91.08
2023-01-11T05:28:59.549Z,90.97
2023-01-11T05:29:59.557Z,90.66
2023-01-11T05:30:59.502Z,90.83
2023-01-11T05:31:59.550Z,91.28
2023-01-11T05:32:59.521Z,91.18
2023-01-11T05:33:59.528Z,90.93
2023-01-11T05:34:59.493Z,90.83
2023-01-11T05:35:59.489Z,90.72
2023-01-11T05:36:59.468Z,90.62
2023-01-11T05:37:59.465Z,90.83
2023-01-11T05:38:59.470Z,90.41
2023-01-11T05:39:59.462Z,90.72
2023-01-11T05:40:59.421Z,91.03
2023-01-11T05:41:59.414Z,91.18
2023-01-11T05:42:59.397Z,91.35
2023-01-11T05:43:59.430Z,90.93
2023-01-11T05:44:59.363Z,91.03
2023-01-11T05:45:59.417Z,91.03
2023-01-11T05:46:59.333Z,91.03
2023-01-11T05:47:59.338Z,91.24
2023-01-11T05:48:59.349Z,91.03
2023-01-11T05:49:59.321Z,91.14
2023-01-11T05:51:01.455Z,90.72
2023-01-11T05:51:59.314Z,91.03
2023-01-11T05:52:59.287Z,90.93
2023-01-11T05:53:59.327Z,91.14
2023-01-11T05:54:59.287Z,90.89
2023-01-11T05:55:59.229Z,90.37
2023-01-11T05:56:59.272Z,90.16
2023-01-11T05:57:59.231Z,90.06
2023-01-11T05:58:59.255Z,89.50
2023-01-11T05:59:59.211Z,89.29
2023-01-11T06:00:59.223Z,89.81
2023-01-11T06:01:59.288Z,89.61
2023-01-11T06:02:59.341Z,89.50
2023-01-11T06:03:59.194Z,89.81
2023-01-11T06:04:59.151Z,89.81
2023-01-11T06:05:59.145Z,89.71
2023-01-11T06:06:59.194Z,88.78
2023-01-11T06:07:59.119Z,88.67
2023-01-11T06:08:59.149Z,88.67
2023-01-11T06:09:59.103Z,88.98
2023-01-11T06:10:59.107Z,89.09
2023-01-11T06:11:59.075Z,88.78
2023-01-11T06:12:59.044Z,89.09
2023-01-11T06:13:59.087Z,88.98
2023-01-11T06:14:59.058Z,89.09
2023-01-11T06:15:59.027Z,88.32
2023-01-11T06:16:59.032Z,88.32
2023-01-11T06:17:59.063Z,88.32
2023-01-11T06:18:59.022Z,88.94
2023-01-11T06:19:58.962Z,88.74
2023-01-11T06:20:58.965Z,88.74
2023-01-11T06:21:58.958Z,88.84
2023-01-11T06:22:58.950Z,89.15
2023-01-11T06:23:58.994Z,89.15
2023-01-11T06:24:58.960Z,89.87
2023-01-11T06:25:58.914Z,89.98
2023-01-11T06:26:58.931Z,90.12
2023-01-11T06:27:58.886Z,89.67
2023-01-11T06:28:58.906Z,89.04
2023-01-11T06:29:58.859Z,89.36
2023-01-11T06:30:58.961Z,89.36
2023-01-11T06:31:58.866Z,89.25
2023-01-11T06:32:58.838Z,89.15
2023-01-11T06:33:58.877Z,89.56
2023-01-11T06:34:58.814Z,89.56
2023-01-11T06:35:58.801Z,89.77
2023-01-11T06:36:58.780Z,89.67
2023-01-11T06:37:58.772Z,90.19
2023-01-11T06:38:58.806Z,90.60
2023-01-11T06:39:58.745Z,90.29
2023-01-11T06:40:58.746Z,90.39
2023-01-11T06:41:58.719Z,90.19
2023-01-11T06:42:58.707Z,90.70
2023-01-11T06:43:58.746Z,91.01
2023-01-11T06:44:58.701Z,91.01
2023-01-11T06:45:58.799Z,91.22
2023-01-11T06:46:58.673Z,91.63
2023-01-11T06:47:58.671Z,91.01
2023-01-11T06:48:58.676Z,90.70
2023-01-11T06:49:58.618Z,90.91
2023-01-11T06:50:58.617Z,90.29
2023-01-11T06:51:58.623Z,90.08
2023-01-11T06:52:58.632Z,90.35
2023-01-11T06:53:58.626Z,89.62
2023-01-11T06:54:58.569Z,90.04
2023-01-11T06:55:58.567Z,90.50
2023-01-11T06:56:58.562Z,90.45
2023-01-11T06:57:58.555Z,90.04
2023-01-11T06:58:58.576Z,89.94
2023-01-11T06:59:58.524Z,90.35
2023-01-11T07:00:58.523Z,90.04
2023-01-11T07:01:58.501Z,90.14
2023-01-11T07:02:58.529Z,89.73
2023-01-11T07:03:58.516Z,89.73
2023-01-11T07:04:58.498Z,90.04
2023-01-11T07:05:58.464Z,89.94
2023-01-11T07:06:58.457Z,90.25
2023-01-11T07:07:58.419Z,90.35
2023-01-11T07:08:58.483Z,90.50
2023-01-11T07:09:58.417Z,90.60
2023-01-11T07:10:58.439Z,90.80
2023-01-11T07:11:58.390Z,90.45
2023-01-11T07:12:58.364Z,90.04
2023-01-11T07:13:58.368Z,89.94
2023-01-11T07:14:58.377Z,89.73
2023-01-11T07:15:58.458Z,89.94
2023-01-11T07:16:58.345Z,90.25
2023-01-11T07:17:58.299Z,89.52
2023-01-11T07:18:58.290Z,90.14
2023-01-11T07:19:58.313Z,90.35
2023-01-11T07:20:58.281Z,90.56
2023-01-11T07:21:58.277Z,90.04
2023-01-11T07:22:58.266Z,90.04
2023-01-11T07:23:58.274Z,90.04
2023-01-11T07:24:58.300Z,89.83
2023-01-11T07:25:58.269Z,90.35
2023-01-11T07:26:58.218Z,89.94
2023-01-11T07:27:58.199Z,89.94
2023-01-11T07:28:58.201Z,90.25
2023-01-11T07:29:58.215Z,90.35
2023-01-11T07:30:59.782Z,89.94
2023-01-11T07:31:58.207Z,90.25
2023-01-11T07:32:58.157Z,90.25
2023-01-11T07:33:58.132Z,89.94
2023-01-11T07:34:58.159Z,90.00
2023-01-11T07:35:58.141Z,90.20
2023-01-11T07:36:58.117Z,89.79
2023-01-11T07:37:58.097Z,90.41
2023-01-11T07:38:58.078Z,90.41
2023-01-11T07:39:58.101Z,90.62
2023-01-11T07:40:58.070Z,90.31
2023-01-11T07:41:58.049Z,90.00
2023-01-11T07:42:58.036Z,90.20
2023-01-11T07:43:58.030Z,90.41
2023-01-11T07:44:58.028Z,90.31
2023-01-11T07:45:58.175Z,89.59
2023-01-11T07:46:58.026Z,89.79
2023-01-11T07:47:57.982Z,90.31
2023-01-11T07:48:57.969Z,90.00
2023-01-11T07:49:57.998Z,90.10
2023-01-11T07:50:57.932Z,90.10
2023-01-11T07:51:57.936Z,89.79
2023-01-11T07:52:57.979Z,90.10
2023-01-11T07:53:57.925Z,90.31
2023-01-11T07:54:57.956Z,90.31
2023-01-11T07:55:57.913Z,89.59
2023-01-11T07:56:57.873Z,89.44
2023-01-11T07:57:57.879Z,89.65
2023-01-11T07:58:57.866Z,90.16
2023-01-11T07:59:57.891Z,89.95
2023-01-11T08:00:57.857Z,89.44
2023-01-11T08:01:57.809Z,89.75
2023-01-11T08:02:57.914Z,89.86
2023-01-11T08:03:57.782Z,89.54
2023-01-11T08:04:57.812Z,89.65
2023-01-11T08:05:57.778Z,89.44
2023-01-11T08:06:57.775Z,89.13
2023-01-11T08:07:57.759Z,88.51
2023-01-11T08:08:57.732Z,89.13
2023-01-11T08:09:57.775Z,89.13
2023-01-11T08:10:57.711Z,88.82
2023-01-11T08:11:57.729Z,89.13
2023-01-11T08:12:57.706Z,88.51
2023-01-11T08:13:57.712Z,88.51
2023-01-11T08:14:57.747Z,88.51
2023-01-11T08:15:57.723Z,88.68
2023-01-11T08:16:57.675Z,88.78
2023-01-11T08:17:57.631Z,87.85
2023-01-11T08:18:57.634Z,88.06
2023-01-11T08:19:57.635Z,87.85
2023-01-11T08:20:57.636Z,87.34
2023-01-11T08:21:57.598Z,87.85
2023-01-11T08:22:57.614Z,88.06
2023-01-11T08:23:57.580Z,88.06
2023-01-11T08:24:57.614Z,87.74
2023-01-11T08:25:57.573Z,87.74
2023-01-11T08:26:57.594Z,87.85
2023-01-11T08:27:57.517Z,87.54
2023-01-11T08:28:57.506Z,87.54
2023-01-11T08:29:57.532Z,87.60
2023-01-11T08:30:57.505Z,87.19
2023-01-11T08:31:57.522Z,87.81
2023-01-11T08:32:57.546Z,87.50
2023-01-11T08:33:57.476Z,87.60
2023-01-11T08:34:57.489Z,87.19
2023-01-11T08:35:57.443Z,87.92
2023-01-11T08:36:57.483Z,88.12
2023-01-11T08:37:57.442Z,87.71
2023-01-11T08:38:57.387Z,87.29
2023-01-11T08:39:57.453Z,87.19
2023-01-11T08:40:57.382Z,87.29
2023-01-11T08:41:57.384Z,87.19
2023-01-11T08:42:57.369Z,87.60
2023-01-11T08:43:57.361Z,87.92
2023-01-11T08:44:57.372Z,87.29
2023-01-11T08:45:57.341Z,87.66
2023-01-11T08:46:57.311Z,86.84
2023-01-11T08:47:57.278Z,86.94
2023-01-11T08:48:57.275Z,87.26
2023-01-11T08:49:57.315Z,86.94
2023-01-11T08:50:57.269Z,87.26
2023-01-11T08:51:57.263Z,86.53
2023-01-11T08:52:57.273Z,86.53
2023-01-11T08:53:57.249Z,86.53
2023-01-11T08:54:57.250Z,87.05
2023-01-11T08:55:57.242Z,86.74
2023-01-11T08:56:57.218Z,86.63
2023-01-11T08:57:57.211Z,86.74
2023-01-11T08:58:57.168Z,86.94
2023-01-11T08:59:57.161Z,86.84
2023-01-11T09:00:57.180Z,86.32
2023-01-11T09:01:57.160Z,86.84
2023-01-11T09:02:57.156Z,87.26
2023-01-11T09:03:57.129Z,86.74
2023-01-11T09:04:57.115Z,86.84
2023-01-11T09:05:57.136Z,86.63
2023-01-11T09:06:57.066Z,86.53
2023-01-11T09:07:57.080Z,86.84
2023-01-11T09:08:57.048Z,86.84
2023-01-11T09:09:57.059Z,86.53
2023-01-11T09:10:57.084Z,86.94
2023-01-11T09:11:57.216Z,87.05
2023-01-11T09:12:57.012Z,86.53
2023-01-11T09:13:56.993Z,87.35
2023-01-11T09:14:57.007Z,86.63
2023-01-11T09:15:57.140Z,87.11
2023-01-11T09:16:56.947Z,87.52
2023-01-11T09:17:56.948Z,86.60
2023-01-11T09:18:56.932Z,87.01
2023-01-11T09:19:56.952Z,86.60
2023-01-11T09:20:56.994Z,86.90
2023-01-11T09:21:56.921Z,86.80
2023-01-11T09:22:56.894Z,87.01
2023-01-11T09:23:56.900Z,86.49
2023-01-11T09:24:56.875Z,87.11
2023-01-11T09:25:56.907Z,86.60
2023-01-11T09:26:56.905Z,86.49
2023-01-11T09:27:56.840Z,87.01
2023-01-11T09:28:56.881Z,87.32
2023-01-11T09:29:56.831Z,87.01
2023-01-11T09:30:56.847Z,86.29
2023-01-11T09:31:56.807Z,86.80
2023-01-11T09:32:56.805Z,86.70
2023-01-11T09:33:56.773Z,86.49
2023-01-11T09:34:56.778Z,87.11
2023-01-11T09:35:56.801Z,86.90
2023-01-11T09:36:56.791Z,86.90
2023-01-11T09:37:56.717Z,86.39
2023-01-11T09:38:56.720Z,86.97
2023-01-11T09:39:56.740Z,86.45
2023-01-11T09:40:56.740Z,86.97
2023-01-11T09:41:56.687Z,87.38
2023-01-11T09:42:56.671Z,87.07
2023-01-11T09:43:56.690Z,86.66
2023-01-11T09:44:56.688Z,86.55
2023-01-11T09:45:56.667Z,87.27
2023-01-11T09:46:56.767Z,86.66
2023-01-11T09:47:56.621Z,86.35
2023-01-11T09:48:56.651Z,86.97
2023-01-11T09:49:56.607Z,87.27
2023-01-11T09:50:56.627Z,86.87
2023-01-11T09:51:59.068Z,86.76
2023-01-11T09:52:56.554Z,86.87
2023-01-11T09:53:56.567Z,86.87
2023-01-11T09:54:56.537Z,86.10
2023-01-11T09:55:56.558Z,86.21
2023-01-11T09:56:56.512Z,86.41
2023-01-11T09:57:56.525Z,86.10
2023-01-11T09:58:56.540Z,86.72
2023-01-11T09:59:56.497Z,86.41
2023-01-11T10:00:56.687Z,86.31
2023-01-11T10:01:56.582Z,86.41
2023-01-11T10:02:56.478Z,86.31
2023-01-11T10:03:56.430Z,86.21
2023-01-11T10:04:56.452Z,86.52
2023-01-11T10:05:56.495Z,86.21
2023-01-11T10:06:56.415Z,86.16
2023-01-11T10:18:30.320Z,85.44
2023-01-11T10:18:31.359Z,85.96
2023-01-11T10:18:38.446Z,86.16
2023-01-11T10:18:40.218Z,86.06
2023-01-11T10:19:34.173Z,85.96
2023-01-11T10:19:57.310Z,86.27
2023-01-11T10:20:56.285Z,86.68
2023-01-11T10:21:56.220Z,86.13
2023-01-11T10:22:56.231Z,86.23
2023-01-11T10:23:56.205Z,86.95
2023-01-11T10:24:56.203Z,86.13
2023-01-11T10:25:56.254Z,85.51
2023-01-11T10:26:56.188Z,86.33
2023-01-11T10:27:56.149Z,86.33
2023-01-11T10:28:56.151Z,85.82
2023-01-11T10:29:56.151Z,86.02
2023-01-11T10:30:56.150Z,86.13
2023-01-11T10:31:56.112Z,86.43
2023-01-11T10:32:56.124Z,86.13
2023-01-11T10:33:56.090Z,85.71
2023-01-11T10:34:56.087Z,85.51
2023-01-11T10:35:56.124Z,85.78
2023-01-11T10:36:56.071Z,85.47
2023-01-11T10:37:56.071Z,85.47
2023-01-11T10:38:56.032Z,85.36
2023-01-11T10:39:56.036Z,85.88
2023-01-11T10:40:56.083Z,86.08
2023-01-11T10:41:56.021Z,85.88
2023-01-11T10:42:55.985Z,85.88
2023-01-11T10:43:55.996Z,85.78
2023-01-11T10:44:55.972Z,85.47
2023-01-11T10:45:55.996Z,85.16
2023-01-11T10:46:55.958Z,86.40
2023-01-11T10:47:55.969Z,85.98
2023-01-11T10:48:55.988Z,85.36
2023-01-11T10:49:55.930Z,86.19
2023-01-11T10:50:55.917Z,86.19
2023-01-11T10:51:55.951Z,85.78
2023-01-11T10:52:55.883Z,85.47
2023-01-11T10:53:55.891Z,85.78
2023-01-11T10:54:55.890Z,85.78
2023-01-11T10:55:55.860Z,85.78
2023-01-11T10:57:03.075Z,85.78
2023-01-11T10:58:00.618Z,85.68
2023-01-11T10:58:56.816Z,85.84
2023-01-11T10:59:55.834Z,85.57
2023-01-11T11:00:55.827Z,85.33
2023-01-11T11:01:55.856Z,85.53
2023-01-11T11:02:55.797Z,85.33
2023-01-11T11:03:55.763Z,84.81
2023-01-11T11:04:55.783Z,85.84
2023-01-11T11:05:55.727Z,85.63
2023-01-11T11:06:55.745Z,85.74
2023-01-11T11:07:55.758Z,85.94
2023-01-11T11:08:55.732Z,85.43
2023-01-11T11:09:55.697Z,86.15
2023-01-11T11:10:55.654Z,85.84
2023-01-11T11:11:55.668Z,85.84
2023-01-11T11:12:55.734Z,85.33
2023-01-11T11:13:55.676Z,85.63
2023-01-11T11:14:55.649Z,85.43
2023-01-11T11:15:58.524Z,86.05
2023-01-11T11:16:55.601Z,85.43
2023-01-11T11:17:55.632Z,85.43
2023-01-11T11:18:55.614Z,85.43
2023-01-11T11:19:55.599Z,86.15
2023-01-11T11:20:55.581Z,85.84
2023-01-11T11:21:55.579Z,86.15
2023-01-11T11:22:55.588Z,85.74
2023-01-11T11:23:55.552Z,85.63
2023-01-11T11:24:55.534Z,85.43
2023-01-11T11:25:55.514Z,85.84
2023-01-11T11:26:55.534Z,86.05
2023-01-11T11:27:55.546Z,85.94
2023-01-11T11:28:55.470Z,86.66
2023-01-11T11:29:55.471Z,85.84
2023-01-11T11:30:55.454Z,85.84
2023-01-11T11:31:55.679Z,86.11
2023-01-11T11:32:55.477Z,86.83
2023-01-11T11:33:55.474Z,86.62
2023-01-11T11:34:55.419Z,86.11
2023-01-11T11:35:55.399Z,85.60
2023-01-11T11:36:55.397Z,86.00
2023-01-11T11:37:55.419Z,85.80
2023-01-11T11:38:55.737Z,85.60
2023-01-11T11:39:55.377Z,86.00
2023-01-11T11:40:55.374Z,86.21
2023-01-11T11:41:55.330Z,86.42
2023-01-11T11:42:55.373Z,86.11
2023-01-11T11:43:55.338Z,86.32
2023-01-11T11:44:55.283Z,86.42
2023-01-11T11:45:55.327Z,86.62
2023-01-11T11:46:55.254Z,86.21
2023-01-11T11:47:55.274Z,87.13
2023-01-11T11:48:55.293Z,86.62
2023-01-11T11:49:55.268Z,86.93
2023-01-11T11:50:55.218Z,86.93
2023-01-11T11:51:55.191Z,87.13
2023-01-11T11:52:55.206Z,87.45
2023-01-11T11:53:55.230Z,87.04
2023-01-11T11:54:55.199Z,87.04
2023-01-11T11:55:55.186Z,86.83
2023-01-11T11:56:55.160Z,87.13
2023-01-11T11:57:55.148Z,87.75
2023-01-11T11:58:55.173Z,87.96
2023-01-11T11:59:55.156Z,87.75
2023-01-11T12:00:55.140Z,88.17
2023-01-11T12:01:55.154Z,88.78
2023-01-11T12:02:55.107Z,88.72
2023-01-11T12:03:55.115Z,89.44
2023-01-11T12:04:55.135Z,89.44
2023-01-11T12:05:55.104Z,88.82
2023-01-11T12:06:55.061Z,89.34
2023-01-11T12:07:55.828Z,88.72
2023-01-11T12:08:55.058Z,88.82
2023-01-11T12:09:55.023Z,89.03
2023-01-11T12:10:55.041Z,89.44
2023-01-11T12:11:54.989Z,89.34
2023-01-11T12:12:55.053Z,89.13
2023-01-11T12:13:54.989Z,89.34
2023-01-11T12:14:54.960Z,89.85
2023-01-11T12:15:54.937Z,89.75
2023-01-11T12:16:54.996Z,90.51
2023-01-11T12:17:54.963Z,91.74
2023-01-11T12:18:54.959Z,92.46
2023-01-11T12:19:54.923Z,92.87
2023-01-11T12:20:54.908Z,93.12
2023-01-11T12:21:54.885Z,93.23
2023-01-11T12:22:54.864Z,93.43
2023-01-11T12:23:54.924Z,93.64
2023-01-11T12:24:54.848Z,93.33
2023-01-11T12:25:54.851Z,93.33
2023-01-11T12:26:54.997Z,93.02
2023-01-11T12:27:54.848Z,92.71
2023-01-11T12:28:54.819Z,92.71
2023-01-11T12:29:54.803Z,93.02
2023-01-11T12:30:54.787Z,91.68
2023-01-11T12:31:54.782Z,91.78
2023-01-11T12:32:54.760Z,91.33
2023-01-11T12:33:54.815Z,91.95
2023-01-11T12:34:54.737Z,91.13
2023-01-11T12:35:54.738Z,90.30
2023-01-11T12:36:54.704Z,91.02
2023-01-11T12:37:54.689Z,90.41
2023-01-11T12:38:54.711Z,90.09
2023-01-11T12:39:54.736Z,90.09
2023-01-11T12:40:54.674Z,90.09
2023-01-11T12:41:54.648Z,89.95
2023-01-11T12:42:54.635Z,90.06
2023-01-11T12:43:54.637Z,89.34
2023-01-11T12:44:54.646Z,89.34
2023-01-11T12:45:54.620Z,89.44
2023-01-11T12:46:54.595Z,89.03
2023-01-11T12:47:54.587Z,89.03
2023-01-11T12:48:54.577Z,88.92
2023-01-11T12:49:55.740Z,89.54
2023-01-11T12:50:54.555Z,88.82
2023-01-11T12:51:54.547Z,88.62
2023-01-11T12:52:54.549Z,89.03
2023-01-11T12:53:54.512Z,88.51
2023-01-11T12:54:54.542Z,88.92
2023-01-11T12:55:54.510Z,88.31
2023-01-11T12:56:54.486Z,89.03
2023-01-11T12:57:54.488Z,88.51
2023-01-11T12:58:54.448Z,89.44